Home > Products > Valid Products > TAF

000
FTUS43 KIWX 181100
TAFFWA
TAF
KFWA 181121Z 1812/1912 27006KT P6SM OVC018
     FM181500 27009KT P6SM OVC025=



000
FTUS43 KIWX 181000 AAA
TAFFWA
TAF AMD
KFWA 181050Z 1811/1906 27006KT P6SM OVC018
     FM181500 27009KT P6SM OVC025=



000
FTUS43 KIWX 181000 AAA
TAFFWA
TAF AMD
KFWA 181050Z 1811/1906 27006KT P6SM OVC018
     FM181500 27009KT P6SM OVC025=



000
FTUS43 KIWX 180500
TAFFWA
TAF
KFWA 180521Z 1806/1906 27009KT P6SM OVC025=



000
FTUS43 KIWX 172300 RRA
TAFFWA
TAF
KFWA 172345Z 1800/1824 27009KT P6SM OVC025
      TEMPO 1800/1802 5SM -SN=



000
FTUS43 KIWX 171700
TAFFWA
TAF
KFWA 171728Z 1718/1818 27014G22KT 6SM -SHSN OVC015
     FM172300 28011KT P6SM OVC015
     FM180400 27007KT P6SM OVC025=



000
FTUS43 KIWX 171500 AAA
TAFFWA
TAF AMD
KFWA 171515Z 1715/1812 27014G22KT P6SM OVC021
      TEMPO 1715/1717 5SM -SN BKN015
     FM180000 27007KT P6SM SCT025 BKN035=



000
FTUS43 KIWX 171100
TAFFWA
TAF
KFWA 171129Z 1712/1812 29012KT P6SM OVC015
     FM171400 29014G22KT P6SM OVC020
     FM180000 27007KT P6SM SCT025 BKN035=



000
FTUS43 KIWX 170800 AAA
TAFFWA
TAF AMD
KFWA 170834Z 1709/1806 27015KT P6SM SCT008 OVC015
      TEMPO 1709/1710 4SM -FZDZSN OVC008
     FM171400 27013KT P6SM BKN020
     FM180000 27007KT P6SM BKN025=



000
FTUS43 KIWX 170800 AAA
TAFFWA
TAF AMD
KFWA 170834Z 1709/1806 27015KT P6SM SCT008 OVC015
      TEMPO 1709/1710 4SM -FZDZSN OVC008
     FM171400 27013KT P6SM BKN020
     FM180000 27007KT P6SM BKN025=



000
FTUS43 KIWX 170500
TAFFWA
TAF
KFWA 170538Z 1706/1806 27015KT P6SM OVC015
     FM171400 27013KT P6SM BKN020
     FM180000 27007KT P6SM BKN025=



000
FTUS43 KIWX 170300 AAA
TAFFWA
TAF AMD
KFWA 170310Z 1703/1724 26013G23KT 5SM -DZ BR OVC009
     FM170500 27014G21KT P6SM OVC015
     FM171000 27013G20KT P6SM BKN025=



000
FTUS43 KIWX 162300
TAFFWA
TAF
KFWA 162336Z 1700/1724 26013G22KT 5SM -RA BR OVC009
      TEMPO 1700/1702 3SM -DZ BR OVC006
     FM170300 27014G21KT P6SM OVC015
     FM171000 27013G20KT P6SM BKN025=



000
FTUS43 KIWX 162200 AAA
TAFFWA
TAF AMD
KFWA 162236Z 1623/1718 27013G21KT 3SM -RA BR OVC009
     FM170100 27017G24KT P6SM OVC010
     FM170600 27015G23KT P6SM SCT015 BKN035=



000
FTUS43 KIWX 161700
TAFFWA
TAF
KFWA 161720Z 1618/1718 25014G24KT 6SM -DZ VCSH OVC008
     FM170100 27017G24KT P6SM OVC010
     FM170600 27015G23KT P6SM SCT015 BKN035=



000
FTUS43 KIWX 161100
TAFFWA
TAF
KFWA 161139Z 1612/1712 22005KT 2SM -RA BR OVC006
     FM161800 26012G20KT 5SM BR VCSH OVC008
     FM170100 27019G26KT P6SM OVC010
     FM170600 27016G23KT P6SM SCT015 BKN035=



000
FTUS43 KIWX 160500
TAFFWA
TAF
KFWA 160527Z 1606/1706 14007KT 3SM -DZ BR OVC009
     FM160900 22007KT 2SM -RA BR OVC005
     FM161500 24011KT 2SM -RA BR OVC005
     FM161800 26012G20KT 5SM BR VCSH OVC008
     FM170200 27017G24KT P6SM OVC010=



000
FTUS43 KIWX 152300
TAFFWA
TAF
KFWA 152338Z 1600/1624 14010KT 6SM -RA BR SCT025 OVC050
      TEMPO 1600/1602 4SM -RA BR OVC025
     FM160200 13012KT 4SM -RA BR OVC012
     FM160700 15010KT 2SM -RA BR OVC008
     FM161200 20011KT 3SM -RA BR OVC009
     FM161700 26012G20KT 5SM BR VCSH OVC015=



000
FTUS43 KIWX 152200 AAA
TAFFWA
TAF AMD
KFWA 152231Z 1523/1618 15011KT P6SM SCT015 OVC080
      TEMPO 1523/1602 6SM -RA BR OVC015
     FM160200 13012KT 4SM -RA BR OVC012
     FM160700 16010KT 2SM -RA BR OVC008=



000
FTUS43 KIWX 151700
TAFFWA
TAF
KFWA 151736Z 1518/1618 18012KT P6SM BKN015
     FM160200 13012KT 4SM -RA BR OVC012
     FM160700 16010KT 2SM -RA BR OVC008=



000
FTUS43 KIWX 151600 AAB
TAFFWA
TAF AMD
KFWA 151657Z 1517/1612 17012KT P6SM BKN015
     FM160100 13012KT 3SM -RA BR OVC006=



    US Dept of Commerce
    National Oceanic and Atmospheric Administration
    National Weather Service
    1325 East West Highway
    Silver Spring, MD 20910
    Page Author: NWS Internet Services Team
Disclaimer
Information Quality
Credits
Glossary
Privacy Policy
Freedom of Information Act (FOIA)
About Us
Career Opportunities